createdAt,value
2018-09-03T00:01:02.496Z,17.73
2018-09-03T00:03:30.687Z,17.72
2018-09-03T00:05:58.796Z,17.74
2018-09-03T00:08:26.977Z,17.77
2018-09-03T00:10:55.100Z,17.81
2018-09-03T00:13:23.232Z,17.78
2018-09-03T00:15:51.323Z,17.80
2018-09-03T00:18:19.427Z,17.74
2018-09-03T00:20:47.506Z,17.77
2018-09-03T00:23:15.611Z,17.83
2018-09-03T00:25:43.833Z,17.82
2018-09-03T00:28:11.960Z,17.76
2018-09-03T00:30:40.077Z,17.81
2018-09-03T00:33:13.487Z,17.72
2018-09-03T00:35:46.846Z,17.67
2018-09-03T00:38:20.343Z,17.63
2018-09-03T00:40:53.769Z,17.70
2018-09-03T00:43:27.267Z,17.58
2018-09-03T00:46:00.787Z,17.42
2018-09-03T00:48:28.901Z,17.54
2018-09-03T00:50:57.047Z,17.58
2018-09-03T00:53:25.126Z,17.50
2018-09-03T00:55:53.307Z,17.43
2018-09-03T00:58:21.465Z,17.37
2018-09-03T01:00:49.594Z,17.30
2018-09-03T01:03:17.709Z,17.32
2018-09-03T01:05:45.870Z,17.20
2018-09-03T01:08:14.021Z,17.23
2018-09-03T01:10:42.128Z,17.17
2018-09-03T01:13:10.235Z,17.15
2018-09-03T01:15:38.373Z,17.15
2018-09-03T01:18:06.496Z,17.25
2018-09-03T01:20:34.611Z,17.29
2018-09-03T01:23:02.739Z,17.27
2018-09-03T01:25:30.862Z,17.32
2018-09-03T01:27:58.993Z,17.27
2018-09-03T01:30:27.123Z,17.39
2018-09-03T01:32:55.256Z,17.41
2018-09-03T01:35:23.376Z,17.51
2018-09-03T01:37:51.532Z,17.49
2018-09-03T01:40:19.675Z,17.43
2018-09-03T01:42:47.870Z,17.57
2018-09-03T01:45:15.947Z,17.55
2018-09-03T01:47:44.071Z,17.64
2018-09-03T01:50:12.167Z,17.55
2018-09-03T01:52:40.313Z,17.65
2018-09-03T01:55:08.426Z,17.64
2018-09-03T01:57:36.548Z,17.70
2018-09-03T02:00:04.875Z,17.81
2018-09-03T02:02:33.016Z,17.87
2018-09-03T02:05:01.121Z,17.82
2018-09-03T02:07:29.199Z,17.79
2018-09-03T02:09:57.307Z,17.75
2018-09-03T02:12:25.400Z,17.67
2018-09-03T02:14:53.539Z,17.59
2018-09-03T02:17:21.648Z,17.61
2018-09-03T02:19:49.744Z,17.54
2018-09-03T02:22:17.861Z,17.53
2018-09-03T02:24:45.978Z,17.54
2018-09-03T02:27:14.094Z,17.54
2018-09-03T02:29:42.203Z,17.39
2018-09-03T02:32:10.456Z,17.43
2018-09-03T02:34:38.573Z,17.34
2018-09-03T02:37:06.675Z,17.28
2018-09-03T02:39:34.748Z,17.19
2018-09-03T02:42:02.842Z,17.24
2018-09-03T02:44:31.040Z,17.22
2018-09-03T02:46:59.183Z,17.20
2018-09-03T02:49:27.323Z,17.22
2018-09-03T02:51:55.481Z,17.15
2018-09-03T02:54:23.590Z,17.17
2018-09-03T02:56:51.744Z,17.15
2018-09-03T02:59:19.924Z,17.15
2018-09-03T03:01:48.012Z,17.12
2018-09-03T03:04:16.135Z,17.06
2018-09-03T03:06:44.238Z,17.10
2018-09-03T03:09:12.326Z,17.09
2018-09-03T03:11:40.595Z,17.15
2018-09-03T03:14:08.912Z,17.19
2018-09-03T03:16:37.008Z,17.22
2018-09-03T03:19:05.331Z,17.17
2018-09-03T03:21:33.477Z,17.30
2018-09-03T03:24:01.638Z,17.26
2018-09-03T03:26:29.755Z,17.26
2018-09-03T03:28:57.916Z,17.37
2018-09-03T03:31:26.069Z,17.35
2018-09-03T03:33:54.622Z,17.37
2018-09-03T03:36:22.795Z,17.40
2018-09-03T03:38:51.040Z,17.46
2018-09-03T03:41:19.205Z,17.48
2018-09-03T03:43:47.359Z,17.48
2018-09-03T03:46:15.481Z,17.61
2018-09-03T03:48:43.705Z,17.66
2018-09-03T03:51:11.822Z,17.66
2018-09-03T03:53:39.946Z,17.64
2018-09-03T03:56:08.269Z,17.69
2018-09-03T03:58:36.400Z,17.68
2018-09-03T04:01:04.544Z,17.77
2018-09-03T04:03:32.637Z,17.70
2018-09-03T04:06:00.732Z,17.75
2018-09-03T04:08:28.828Z,17.80
2018-09-03T04:10:56.935Z,17.66
2018-09-03T04:13:25.101Z,17.72
2018-09-03T04:15:53.234Z,17.73
2018-09-03T04:18:21.339Z,17.71
2018-09-03T04:20:49.487Z,17.56
2018-09-03T04:23:17.667Z,17.58
2018-09-03T04:25:45.705Z,17.72
2018-09-03T04:28:13.858Z,17.78
2018-09-03T04:30:41.973Z,17.85
2018-09-03T04:33:10.180Z,17.83
2018-09-03T04:35:38.298Z,17.84
2018-09-03T04:38:06.451Z,17.80
2018-09-03T04:40:34.520Z,17.88
2018-09-03T04:43:02.658Z,17.83
2018-09-03T04:45:30.796Z,17.82
2018-09-03T04:47:58.916Z,17.78
2018-09-03T04:50:26.988Z,17.87
2018-09-03T04:52:55.080Z,17.90
2018-09-03T04:55:23.422Z,17.95
2018-09-03T04:57:51.448Z,17.87
2018-09-03T05:00:19.542Z,17.90
2018-09-03T05:02:47.634Z,17.90
2018-09-03T05:05:15.758Z,17.91
2018-09-03T05:07:43.888Z,17.87
2018-09-03T05:10:11.963Z,17.94
2018-09-03T05:12:40.140Z,17.96
2018-09-03T05:15:08.306Z,17.96
2018-09-03T05:17:36.402Z,17.98
2018-09-03T05:20:04.564Z,18.00
2018-09-03T05:22:32.697Z,18.08
2018-09-03T05:25:00.789Z,18.12
2018-09-03T05:27:28.889Z,18.12
2018-09-03T05:29:57.004Z,18.05
2018-09-03T05:32:25.108Z,18.01
2018-09-03T05:34:53.211Z,17.96
2018-09-03T05:37:21.363Z,17.99
2018-09-03T05:39:49.486Z,18.07
2018-09-03T05:42:17.604Z,18.08
2018-09-03T05:44:45.687Z,18.12
2018-09-03T05:47:13.835Z,18.05
2018-09-03T05:49:41.973Z,18.18
2018-09-03T05:52:10.100Z,18.26
2018-09-03T05:54:38.215Z,18.39
2018-09-03T05:57:06.295Z,18.39
2018-09-03T05:59:34.467Z,18.18
2018-09-03T06:02:02.545Z,18.20
2018-09-03T06:04:30.654Z,18.18
2018-09-03T06:06:58.750Z,18.16
2018-09-03T06:09:26.842Z,18.14
2018-09-03T06:11:54.910Z,18.19
2018-09-03T06:14:24.071Z,18.18
2018-09-03T06:16:52.201Z,18.22
2018-09-03T06:19:20.326Z,18.21
2018-09-03T06:21:48.462Z,18.12
2018-09-03T06:24:16.603Z,18.21
2018-09-03T06:26:44.692Z,18.19
2018-09-03T06:29:12.816Z,18.25
2018-09-03T06:31:40.931Z,18.29
2018-09-03T06:34:09.060Z,18.36
2018-09-03T06:36:37.153Z,18.35
2018-09-03T06:39:07.002Z,18.34
2018-09-03T06:41:35.052Z,18.36
2018-09-03T06:44:03.144Z,18.32
2018-09-03T06:46:31.237Z,18.38
2018-09-03T06:48:59.395Z,18.47
2018-09-03T06:51:27.507Z,18.39
2018-09-03T06:53:55.613Z,18.52
2018-09-03T06:56:23.735Z,18.62
2018-09-03T06:58:51.858Z,18.77
2018-09-03T07:01:20.247Z,18.82
2018-09-03T07:03:48.411Z,18.86
2018-09-03T07:06:16.542Z,18.70
2018-09-03T07:08:44.624Z,18.61
2018-09-03T07:11:12.913Z,18.58
2018-09-03T07:13:41.077Z,18.45
2018-09-03T07:16:09.197Z,18.45
2018-09-03T07:18:37.373Z,18.37
2018-09-03T07:21:05.502Z,18.38
2018-09-03T07:23:33.624Z,18.45
2018-09-03T07:26:01.706Z,18.44
2018-09-03T07:28:29.835Z,18.31
2018-09-03T07:30:58.440Z,18.41
2018-09-03T07:33:26.560Z,18.39
2018-09-03T07:35:54.669Z,18.23
2018-09-03T07:38:22.804Z,18.23
2018-09-03T07:40:50.957Z,18.25
2018-09-03T07:43:19.069Z,18.27
2018-09-03T07:45:47.194Z,18.32
2018-09-03T07:48:15.372Z,18.36
2018-09-03T07:50:43.506Z,18.27
2018-09-03T07:53:11.604Z,18.32
2018-09-03T07:55:39.734Z,18.17
2018-09-03T07:58:08.323Z,18.21
2018-09-03T08:00:36.387Z,18.21
2018-09-03T08:03:04.490Z,18.24
2018-09-03T08:05:32.654Z,18.31
2018-09-03T08:08:00.784Z,18.27
2018-09-03T08:10:28.941Z,18.24
2018-09-03T08:12:57.068Z,18.14
2018-09-03T08:15:25.202Z,18.19
2018-09-03T08:17:53.307Z,18.28
2018-09-03T08:20:21.452Z,18.33
2018-09-03T08:22:49.615Z,18.38
2018-09-03T08:25:17.727Z,18.42
2018-09-03T08:27:45.860Z,18.37
2018-09-03T08:30:14.014Z,18.45
2018-09-03T08:32:42.212Z,18.56
2018-09-03T08:35:10.514Z,18.70
2018-09-03T08:37:38.773Z,18.84
2018-09-03T08:40:06.924Z,18.96
2018-09-03T08:42:35.065Z,19.25
2018-09-03T08:45:03.184Z,19.68
2018-09-03T08:47:31.510Z,19.87
2018-09-03T08:49:59.629Z,19.99
2018-09-03T08:52:27.795Z,20.03
2018-09-03T08:54:55.891Z,20.08
2018-09-03T08:57:24.059Z,20.20
2018-09-03T08:59:52.221Z,20.42
2018-09-03T09:02:20.384Z,20.51
2018-09-03T09:04:48.492Z,20.54
2018-09-03T09:07:16.771Z,20.74
2018-09-03T09:09:44.888Z,20.86
2018-09-03T09:12:13.064Z,20.53
2018-09-03T09:14:41.191Z,20.68
2018-09-03T09:17:09.354Z,20.76
2018-09-03T09:19:37.457Z,20.90
2018-09-03T09:22:05.617Z,20.91
2018-09-03T09:24:33.844Z,20.83
2018-09-03T09:27:01.914Z,21.07
2018-09-03T09:29:30.104Z,21.26
2018-09-03T09:31:58.274Z,21.43
2018-09-03T09:34:26.383Z,21.57
2018-09-03T09:36:54.500Z,21.44
2018-09-03T09:39:22.595Z,21.31
2018-09-03T09:41:50.680Z,21.58
2018-09-03T09:44:18.824Z,21.75
2018-09-03T09:46:46.911Z,22.03
2018-09-03T09:49:15.007Z,22.11
2018-09-03T09:51:43.170Z,22.25
2018-09-03T09:54:11.399Z,22.16
2018-09-03T09:56:39.622Z,22.27
2018-09-03T09:59:07.773Z,22.31
2018-09-03T10:01:37.501Z,22.26
2018-09-03T10:04:05.798Z,22.20
2018-09-03T10:06:34.011Z,22.58
2018-09-03T10:09:02.118Z,22.55
2018-09-03T10:11:30.351Z,22.32
2018-09-03T10:13:58.880Z,22.29
2018-09-03T10:16:28.108Z,22.58
2018-09-03T10:18:56.227Z,22.67
2018-09-03T10:21:24.343Z,22.80
2018-09-03T10:23:53.216Z,22.90
2018-09-03T10:26:21.295Z,22.85
2018-09-03T10:28:49.447Z,22.88
2018-09-03T10:31:17.547Z,23.04
2018-09-03T10:33:45.759Z,23.36
2018-09-03T10:36:13.878Z,23.49
2018-09-03T10:38:42.030Z,23.73
2018-09-03T10:41:10.196Z,23.85
2018-09-03T10:43:38.315Z,23.63
2018-09-03T10:46:06.458Z,23.50
2018-09-03T10:48:34.575Z,23.74
2018-09-03T10:51:02.701Z,23.75
2018-09-03T10:53:30.879Z,23.86
2018-09-03T10:55:59.018Z,23.91
2018-09-03T10:58:27.166Z,24.11
2018-09-03T11:00:55.355Z,24.20
2018-09-03T11:03:23.486Z,24.26
2018-09-03T11:05:51.630Z,24.19
2018-09-03T11:08:19.994Z,24.23
2018-09-03T11:10:48.157Z,24.33
2018-09-03T11:13:16.268Z,24.35
2018-09-03T11:15:44.379Z,24.45
2018-09-03T11:18:12.548Z,24.55
2018-09-03T11:20:40.710Z,24.52
2018-09-03T11:23:08.831Z,24.70
2018-09-03T11:25:36.923Z,24.92
2018-09-03T11:28:05.518Z,25.07
2018-09-03T11:30:33.659Z,25.15
2018-09-03T11:33:02.996Z,25.12
2018-09-03T11:35:31.143Z,24.97
2018-09-03T11:37:59.249Z,25.04
2018-09-03T11:40:27.363Z,25.24
2018-09-03T11:42:55.437Z,25.19
2018-09-03T11:45:23.997Z,25.11
2018-09-03T11:47:52.156Z,25.20
2018-09-03T11:50:20.862Z,25.43
2018-09-03T11:52:49.092Z,25.51
2018-09-03T11:55:17.286Z,25.65
2018-09-03T11:57:45.447Z,25.78
2018-09-03T12:00:19.622Z,25.88
2018-09-03T12:02:47.758Z,25.88
2018-09-03T12:05:15.872Z,26.15
2018-09-03T12:07:43.987Z,26.25
2018-09-03T12:10:13.088Z,26.29
2018-09-03T12:12:41.220Z,26.30
2018-09-03T12:15:15.064Z,26.32
2018-09-03T12:17:43.211Z,26.45
2018-09-03T12:21:15.353Z,26.45
2018-09-03T12:23:44.059Z,26.49
2018-09-03T12:26:12.319Z,26.58
2018-09-03T12:28:40.459Z,26.52
2018-09-03T12:31:09.000Z,26.49
2018-09-03T12:33:37.089Z,26.40
2018-09-03T12:36:05.863Z,26.49
2018-09-03T12:38:34.445Z,26.68
2018-09-03T12:41:02.599Z,26.58
2018-09-03T12:43:30.706Z,26.81
2018-09-03T12:46:01.250Z,26.83
2018-09-03T12:48:29.972Z,26.79
2018-09-03T12:50:58.445Z,26.56
2018-09-03T12:53:26.542Z,26.51
2018-09-03T12:55:54.645Z,26.59
2018-09-03T12:58:22.729Z,26.73
2018-09-03T13:00:51.004Z,26.86
2018-09-03T13:03:19.040Z,26.82
2018-09-03T13:05:47.148Z,26.78
2018-09-03T13:08:15.527Z,26.78
2018-09-03T13:10:43.739Z,26.72
2018-09-03T13:13:11.838Z,26.71
2018-09-03T13:15:39.941Z,26.90
2018-09-03T13:18:08.087Z,26.80
2018-09-03T13:20:36.214Z,26.91
2018-09-03T13:23:04.362Z,27.05
2018-09-03T13:25:32.471Z,26.97
2018-09-03T13:28:00.593Z,26.91
2018-09-03T13:30:28.678Z,26.90
2018-09-03T13:32:56.831Z,27.00
2018-09-03T13:35:25.240Z,26.84
2018-09-03T13:37:53.349Z,26.64
2018-09-03T13:40:21.443Z,26.65
2018-09-03T13:42:49.571Z,26.82
2018-09-03T13:45:17.656Z,26.94
2018-09-03T13:47:45.783Z,27.10
2018-09-03T13:50:13.877Z,27.12
2018-09-03T13:52:42.099Z,27.08
2018-09-03T13:55:10.241Z,27.15
2018-09-03T13:57:38.404Z,27.03
2018-09-03T14:00:07.669Z,26.93
2018-09-03T14:02:35.782Z,26.65
2018-09-03T14:05:03.892Z,26.40
2018-09-03T14:07:31.969Z,26.57
2018-09-03T14:10:00.093Z,26.53
2018-09-03T14:12:28.200Z,26.59
2018-09-03T14:14:56.284Z,26.60
2018-09-03T14:17:24.402Z,26.69
2018-09-03T14:19:52.560Z,26.78
2018-09-03T14:22:20.960Z,26.79
2018-09-03T14:24:49.000Z,26.75
2018-09-03T14:27:17.103Z,26.59
2018-09-03T14:29:45.224Z,26.68
2018-09-03T14:32:13.351Z,26.67
2018-09-03T14:34:41.532Z,26.65
2018-09-03T14:37:09.688Z,26.61
2018-09-03T14:39:37.755Z,26.73
2018-09-03T14:42:05.876Z,26.82
2018-09-03T14:44:34.008Z,26.91
2018-09-03T14:47:02.115Z,26.81
2018-09-03T14:49:30.242Z,26.70
2018-09-03T14:51:58.333Z,26.64
2018-09-03T14:54:26.475Z,26.72
2018-09-03T14:56:54.577Z,26.80
2018-09-03T14:59:22.680Z,26.62
2018-09-03T15:01:50.815Z,26.52
2018-09-03T15:04:18.992Z,26.65
2018-09-03T15:06:47.035Z,26.61
2018-09-03T15:09:15.148Z,26.63
2018-09-03T15:11:43.232Z,26.66
2018-09-03T15:14:11.328Z,26.61
2018-09-03T15:16:39.427Z,26.68
2018-09-03T15:19:07.508Z,26.67
2018-09-03T15:21:36.020Z,26.50
2018-09-03T15:24:04.716Z,26.26
2018-09-03T15:26:32.886Z,26.19
2018-09-03T15:29:00.933Z,26.12
2018-09-03T15:31:29.373Z,25.87
2018-09-03T15:33:57.544Z,25.80
2018-09-03T15:36:25.894Z,25.76
2018-09-03T15:38:53.973Z,25.74
2018-09-03T15:41:22.094Z,25.73
2018-09-03T15:43:50.188Z,25.61
2018-09-03T15:46:18.435Z,25.44
2018-09-03T15:48:46.570Z,25.27
2018-09-03T15:51:14.715Z,25.29
2018-09-03T15:53:42.813Z,25.29
2018-09-03T15:56:10.928Z,25.09
2018-09-03T15:58:39.085Z,25.13
2018-09-03T16:01:07.236Z,25.04
2018-09-03T16:03:35.399Z,24.97
2018-09-03T16:06:03.519Z,24.93
2018-09-03T16:08:31.588Z,24.92
2018-09-03T16:10:59.733Z,24.99
2018-09-03T16:13:27.843Z,24.93
2018-09-03T16:15:55.990Z,24.95
2018-09-03T16:18:24.137Z,24.92
2018-09-03T16:20:52.381Z,24.82
2018-09-03T16:23:20.951Z,24.79
2018-09-03T16:25:49.055Z,24.74
2018-09-03T16:28:17.220Z,24.66
2018-09-03T16:30:45.336Z,24.58
2018-09-03T16:33:13.506Z,24.48
2018-09-03T16:35:41.624Z,24.35
2018-09-03T16:38:09.784Z,24.32
2018-09-03T16:40:37.917Z,24.17
2018-09-03T16:43:06.419Z,24.15
2018-09-03T16:45:35.048Z,24.05
2018-09-03T16:48:03.178Z,24.06
2018-09-03T16:50:32.149Z,23.91
2018-09-03T16:53:00.264Z,23.82
2018-09-03T16:55:28.397Z,23.64
2018-09-03T16:57:56.542Z,23.63
2018-09-03T17:00:24.678Z,23.41
2018-09-03T17:02:52.824Z,23.49
2018-09-03T17:05:20.927Z,23.44
2018-09-03T17:07:49.028Z,23.25
2018-09-03T17:10:17.214Z,23.15
2018-09-03T17:12:45.337Z,23.16
2018-09-03T17:15:13.480Z,23.00
2018-09-03T17:17:41.583Z,23.01
2018-09-03T17:20:09.764Z,22.91
2018-09-03T17:22:37.886Z,22.73
2018-09-03T17:25:06.090Z,22.65
2018-09-03T17:27:34.310Z,22.43
2018-09-03T17:30:02.424Z,22.46
2018-09-03T17:32:30.531Z,22.43
2018-09-03T17:34:58.743Z,22.38
2018-09-03T17:37:26.880Z,22.19
2018-09-03T17:39:54.983Z,22.24
2018-09-03T17:42:23.123Z,22.22
2018-09-03T17:44:51.233Z,21.95
2018-09-03T17:47:19.372Z,21.92
2018-09-03T17:49:47.584Z,21.81
2018-09-03T17:52:15.659Z,21.79
2018-09-03T17:54:43.820Z,21.73
2018-09-03T17:57:11.981Z,21.70
2018-09-03T17:59:40.158Z,21.68
2018-09-03T18:02:08.288Z,21.56
2018-09-03T18:04:36.442Z,21.64
2018-09-03T18:07:04.573Z,21.55
2018-09-03T18:09:32.746Z,21.59
2018-09-03T18:12:00.850Z,21.46
2018-09-03T18:14:28.982Z,21.43
2018-09-03T18:16:57.105Z,21.37
2018-09-03T18:19:25.243Z,21.28
2018-09-03T18:21:53.495Z,21.27
2018-09-03T18:24:21.545Z,21.22
2018-09-03T18:26:49.660Z,21.29
2018-09-03T18:29:17.855Z,21.15
2018-09-03T18:31:45.971Z,20.92
2018-09-03T18:34:14.123Z,20.78
2018-09-03T18:36:42.274Z,20.87
2018-09-03T18:39:10.501Z,20.87
2018-09-03T18:41:38.666Z,20.85
2018-09-03T18:44:06.799Z,20.84
2018-09-03T18:49:09.335Z,20.81
2018-09-03T18:51:37.445Z,20.65
2018-09-03T18:54:05.589Z,20.64
2018-09-03T18:56:33.734Z,20.56
2018-09-03T18:59:01.877Z,20.52
2018-09-03T19:01:30.056Z,20.55
2018-09-03T19:03:58.182Z,20.44
2018-09-03T19:06:26.300Z,20.44
2018-09-03T19:08:54.439Z,20.33
2018-09-03T19:11:22.588Z,20.30
2018-09-03T19:13:51.227Z,20.31
2018-09-03T19:16:19.328Z,20.27
2018-09-03T19:18:47.460Z,20.21
2018-09-03T19:21:15.606Z,20.27
2018-09-03T19:23:43.753Z,20.27
2018-09-03T19:26:11.855Z,20.18
2018-09-03T19:28:39.967Z,20.09
2018-09-03T19:31:08.101Z,20.04
2018-09-03T19:33:36.235Z,20.05
2018-09-03T19:36:04.339Z,19.92
2018-09-03T19:38:32.511Z,19.91
2018-09-03T19:41:00.605Z,19.84
2018-09-03T19:43:28.678Z,19.86
2018-09-03T19:45:56.824Z,19.69
2018-09-03T19:48:24.987Z,19.69
2018-09-03T19:50:53.063Z,19.61
2018-09-03T19:53:21.205Z,19.50
2018-09-03T19:55:49.363Z,19.45
2018-09-03T19:58:17.512Z,19.43
2018-09-03T20:00:45.623Z,19.46
2018-09-03T20:03:13.739Z,19.47
2018-09-03T20:05:41.876Z,19.37
2018-09-03T20:08:10.095Z,19.33
2018-09-03T20:10:38.998Z,19.32
2018-09-03T20:13:07.082Z,19.25
2018-09-03T20:15:35.196Z,19.22
2018-09-03T20:18:03.306Z,19.18
2018-09-03T20:20:31.423Z,19.07
2018-09-03T20:22:59.543Z,19.04
2018-09-03T20:25:27.656Z,19.01
2018-09-03T20:27:55.779Z,18.92
2018-09-03T20:30:23.868Z,18.98
2018-09-03T20:32:51.973Z,18.89
2018-09-03T20:35:20.075Z,18.83
2018-09-03T20:37:48.207Z,18.83
2018-09-03T20:40:16.343Z,18.72
2018-09-03T20:42:44.688Z,18.76
2018-09-03T20:45:12.810Z,18.74
2018-09-03T20:47:40.939Z,18.75
2018-09-03T20:50:09.079Z,18.69
2018-09-03T20:52:37.209Z,18.67
2018-09-03T20:55:05.404Z,18.67
2018-09-03T20:57:33.535Z,18.61
2018-09-03T21:00:01.672Z,18.59
2018-09-03T21:02:29.767Z,18.54
2018-09-03T21:04:57.899Z,18.55
2018-09-03T21:07:26.012Z,18.48
2018-09-03T21:09:54.082Z,18.37
2018-09-03T21:12:22.181Z,18.41
2018-09-03T21:14:55.956Z,18.29
2018-09-03T21:17:24.080Z,18.31
2018-09-03T21:19:52.231Z,18.22
2018-09-03T21:22:20.337Z,18.22
2018-09-03T21:24:48.448Z,18.10
2018-09-03T21:27:16.548Z,18.13
2018-09-03T21:29:44.644Z,18.13
2018-09-03T21:32:12.745Z,18.09
2018-09-03T21:34:40.867Z,18.06
2018-09-03T21:37:08.965Z,18.07
2018-09-03T21:39:37.089Z,18.04
2018-09-03T21:42:05.593Z,17.97
2018-09-03T21:44:33.729Z,17.94
2018-09-03T21:47:01.911Z,17.93
2018-09-03T21:49:30.015Z,17.89
2018-09-03T21:51:58.125Z,17.80
2018-09-03T21:54:26.250Z,17.83
2018-09-03T21:56:54.388Z,17.68
2018-09-03T21:59:22.521Z,17.72
2018-09-03T22:01:50.603Z,17.67
2018-09-03T22:04:18.708Z,17.65
2018-09-03T22:06:46.801Z,17.56
2018-09-03T22:09:14.903Z,17.58
2018-09-03T22:11:43.028Z,17.59
2018-09-03T22:14:11.106Z,17.59
2018-09-03T22:16:39.196Z,17.54
2018-09-03T22:19:07.310Z,17.49
2018-09-03T22:21:35.444Z,17.51
2018-09-03T22:24:03.554Z,17.47
2018-09-03T22:26:31.678Z,17.48
2018-09-03T22:28:59.786Z,17.46
2018-09-03T22:31:27.936Z,17.48
2018-09-03T22:38:50.744Z,17.28
2018-09-03T22:41:18.835Z,17.11
2018-09-03T22:43:46.944Z,17.09
2018-09-03T22:46:15.065Z,17.02
2018-09-03T22:48:43.154Z,17.02
2018-09-03T22:51:11.267Z,16.97
2018-09-03T22:53:39.370Z,16.91
2018-09-03T22:56:07.487Z,16.83
2018-09-03T22:58:35.691Z,16.81
2018-09-03T23:01:03.806Z,16.89
2018-09-03T23:03:31.933Z,16.83
2018-09-03T23:06:00.072Z,16.88
2018-09-03T23:08:28.279Z,16.94
2018-09-03T23:10:56.375Z,16.86
2018-09-03T23:13:24.504Z,16.89
2018-09-03T23:15:53.436Z,16.90
2018-09-03T23:18:22.959Z,16.80
2018-09-03T23:20:51.082Z,16.85
2018-09-03T23:23:19.214Z,16.77
2018-09-03T23:25:47.983Z,16.75
2018-09-03T23:28:16.128Z,16.55
2018-09-03T23:30:44.237Z,16.63
2018-09-03T23:33:12.743Z,16.60
2018-09-03T23:35:40.916Z,16.54
2018-09-03T23:38:09.010Z,16.59
2018-09-03T23:40:37.146Z,16.62
2018-09-03T23:43:05.247Z,16.65
2018-09-03T23:45:33.428Z,16.73
2018-09-03T23:48:01.561Z,16.65
2018-09-03T23:50:29.676Z,16.70
2018-09-03T23:52:57.839Z,16.67
2018-09-03T23:55:25.946Z,16.62
2018-09-03T23:57:54.029Z,16.61
